Time;durP1;ratioP1;P1;durP2;ratioP2;P2;SDS_P1;SDS_P2;PMS_P1;PMS_P2;Temp;Humidity;BMP_temperature;BMP_pressure;BME280_temperature;BME280_humidity;BME280_pressure;Samples;Min_cycle;Max_cycle;Signal;HPM_P1;HPM_P2
2022/05/10 00:01:21;;;;;;;12.93;2.80;;;21.30;51.10;;;;;;7713274;23;20027;-68
2022/05/10 00:04:28;;;;;;;4.72;2.15;;;21.20;51.90;;;;;;7713140;23;20017;-68
2022/05/10 00:07:32;;;;;;;2.83;1.80;;;21.20;51.40;;;;;;7687194;23;20028;-68
2022/05/10 00:10:35;;;;;;;2.70;1.73;;;21.10;51.40;;;;;;7686887;23;20273;-68
2022/05/10 00:13:36;;;;;;;3.83;1.80;;;21.10;51.60;;;;;;7714672;23;20078;-68
2022/05/10 00:16:41;;;;;;;2.60;1.50;;;21.10;51.80;;;;;;7689078;23;20017;-68
2022/05/10 00:19:42;;;;;;;3.40;1.90;;;21.00;51.80;;;;;;7688680;23;20139;-68
2022/05/10 00:22:43;;;;;;;3.35;2.50;;;21.00;52.30;;;;;;7663464;23;20031;-68
2022/05/10 00:25:44;;;;;;;4.07;2.00;;;21.00;51.90;;;;;;7663498;23;20024;-68
2022/05/10 00:28:46;;;;;;;4.78;2.00;;;20.90;51.90;;;;;;7714473;23;20070;-68
2022/05/10 00:31:47;;;;;;;3.25;2.10;;;20.80;52.10;;;;;;7688316;23;20023;-69
2022/05/10 00:34:48;;;;;;;3.28;2.20;;;20.80;52.20;;;;;;7714878;23;20395;-68
2022/05/10 00:37:51;;;;;;;3.72;2.05;;;20.70;52.40;;;;;;7714636;23;20020;-68
2022/05/10 00:40:51;;;;;;;3.25;2.08;;;20.60;52.50;;;;;;7714551;23;20013;-68
2022/05/10 00:44:06;;;;;;;2.50;1.70;;;20.60;52.70;;;;;;7714677;23;20043;-68
2022/05/10 00:47:34;;;;;;;4.45;1.80;;;20.50;52.90;;;;;;7686667;23;20020;-68
2022/05/10 00:50:45;;;;;;;3.33;2.10;;;20.40;53.10;;;;;;7708019;23;20024;-68
2022/05/10 00:54:25;;;;;;;3.40;1.73;;;20.40;53.30;;;;;;7683264;23;20017;-68
2022/05/10 00:57:30;;;;;;;3.15;2.20;;;20.30;53.50;;;;;;7681840;23;20030;-68
2022/05/10 01:00:32;;;;;;;4.57;1.85;;;20.20;53.50;;;;;;7709661;23;20517;-68
2022/05/10 01:03:39;;;;;;;2.85;1.83;;;20.20;53.60;;;;;;7658255;23;20041;-68
2022/05/10 01:06:50;;;;;;;4.30;2.28;;;20.20;53.70;;;;;;7683990;23;20016;-68
2022/05/10 01:10:20;;;;;;;3.13;1.77;;;20.20;53.70;;;;;;7685551;23;20040;-68
2022/05/10 01:13:29;;;;;;;;;;;20.20;53.70;;;;;;7676173;23;20030;-68
2022/05/10 01:16:30;;;;;;;;;;;20.20;53.70;;;;;;7686075;23;20219;-68
2022/05/10 01:19:31;;;;;;;3.97;1.90;;;20.20;53.80;;;;;;7711099;23;19907;-69
2022/05/10 01:23:05;;;;;;;2.47;1.67;;;20.20;53.70;;;;;;7708053;23;20031;-69
2022/05/10 01:26:14;;;;;;;4.68;2.40;;;20.10;53.90;;;;;;7680176;23;20012;-68
2022/05/10 01:29:30;;;;;;;3.58;2.20;;;20.10;53.90;;;;;;7680707;23;20304;-69
2022/05/10 01:36:13;;;;;;;4.93;2.38;;;20.10;54.30;;;;;;7706131;23;20044;-69
2022/05/10 01:39:33;;;;;;;2.92;2.00;;;20.20;54.40;;;;;;7681394;23;20040;-69
2022/05/10 01:42:40;;;;;;;3.05;1.90;;;20.10;54.40;;;;;;7655971;23;20095;-68
2022/05/10 01:45:49;;;;;;;6.28;2.60;;;20.10;54.50;;;;;;7680363;23;20498;-68
2022/05/10 01:48:55;;;;;;;4.78;2.25;;;20.10;54.70;;;;;;7680418;23;20490;-68
2022/05/10 01:52:02;;;;;;;5.57;1.98;;;20.10;54.60;;;;;;7680566;23;20431;-68
2022/05/10 01:55:24;;;;;;;4.25;2.17;;;20.10;54.60;;;;;;7682999;23;20019;-68
2022/05/10 01:58:32;;;;;;;3.25;1.98;;;20.10;54.60;;;;;;7706885;23;20056;-69
2022/05/10 02:01:39;;;;;;;3.77;2.20;;;20.20;54.70;;;;;;7708978;23;20016;-68
2022/05/10 02:04:42;;;;;;;3.25;2.17;;;20.10;54.80;;;;;;7708304;23;20047;-69
2022/05/10 02:07:49;;;;;;;6.45;2.20;;;20.20;54.90;;;;;;7708647;23;20036;-68
2022/05/10 02:10:55;;;;;;;2.80;2.10;;;20.10;55.00;;;;;;7682619;23;20028;-69
2022/05/10 02:14:10;;;;;;;3.38;2.33;;;20.10;55.00;;;;;;7708210;23;20017;-69
2022/05/10 02:17:13;;;;;;;6.72;2.40;;;20.10;55.10;;;;;;7708214;23;20013;-68
2022/05/10 02:20:34;;;;;;;3.45;2.30;;;20.10;55.20;;;;;;7657509;23;20023;-68
2022/05/10 02:23:55;;;;;;;6.60;2.70;;;20.10;55.40;;;;;;7656714;23;20112;-68
2022/05/10 02:27:01;;;;;;;3.53;2.25;;;20.00;55.40;;;;;;7681889;23;20377;-68
2022/05/10 02:30:12;;;;;;;7.35;2.30;;;20.00;55.40;;;;;;7682543;23;20457;-68
2022/05/10 02:33:15;;;;;;;3.25;2.45;;;20.00;55.40;;;;;;7656347;23;20048;-68
2022/05/10 02:36:18;;;;;;;7.28;2.35;;;20.00;55.50;;;;;;7708686;23;20478;-68
2022/05/10 02:39:19;;;;;;;8.82;2.33;;;19.90;55.50;;;;;;7682429;23;20021;-68
2022/05/10 02:42:22;;;;;;;3.33;1.70;;;19.90;55.60;;;;;;7680673;23;20078;-68
2022/05/10 02:45:23;;;;;;;3.78;2.40;;;19.90;55.80;;;;;;7682198;23;20023;-68
2022/05/10 02:48:29;;;;;;;4.43;2.40;;;19.80;55.90;;;;;;7682161;23;20013;-69
2022/05/10 02:51:30;;;;;;;3.60;1.90;;;19.70;56.20;;;;;;7708190;23;20370;-68
2022/05/10 02:54:31;;;;;;;4.05;1.75;;;19.60;56.40;;;;;;7708501;23;20012;-69
2022/05/10 02:57:32;;;;;;;7.53;2.15;;;19.60;56.70;;;;;;7667026;23;20390;-68
2022/05/10 03:00:34;;;;;;;3.88;2.22;;;19.50;56.80;;;;;;7667940;23;20032;-68
2022/05/10 03:03:35;;;;;;;3.47;2.10;;;19.40;56.80;;;;;;7681717;23;20024;-68
2022/05/10 03:06:37;;;;;;;10.50;2.85;;;19.40;56.80;;;;;;7680623;23;20017;-68
2022/05/10 03:09:38;;;;;;;4.57;1.90;;;19.40;56.80;;;;;;7709191;23;20024;-68
2022/05/10 03:12:39;;;;;;;3.55;2.15;;;19.40;56.80;;;;;;7683644;23;20021;-68
2022/05/10 03:15:43;;;;;;;6.03;2.25;;;19.40;56.80;;;;;;7709120;23;20012;-71
2022/05/10 03:18:45;;;;;;;4.25;2.10;;;19.40;56.80;;;;;;7684363;23;20017;-68
2022/05/10 03:21:46;;;;;;;8.32;2.10;;;19.30;56.80;;;;;;7709484;23;20032;-67
2022/05/10 03:24:47;;;;;;;3.80;2.30;;;19.30;56.80;;;;;;7683361;23;20005;-67
2022/05/10 03:27:49;;;;;;;3.15;2.10;;;19.30;56.90;;;;;;7666289;23;20015;-69
2022/05/10 03:30:50;;;;;;;3.47;2.30;;;19.30;56.90;;;;;;7669043;23;20043;-67
2022/05/10 03:37:10;;;;;;;3.45;2.17;;;19.20;57.20;;;;;;7670822;23;20019;-68
2022/05/10 03:40:12;;;;;;;4.00;2.13;;;19.20;57.20;;;;;;7685469;23;20009;-69
2022/05/10 03:43:13;;;;;;;4.90;2.28;;;19.20;57.30;;;;;;7686046;23;20063;-68
2022/05/10 03:46:15;;;;;;;8.50;1.95;;;19.20;57.40;;;;;;7671648;23;20099;-70
2022/05/10 03:49:16;;;;;;;4.90;2.42;;;19.20;57.40;;;;;;7695444;23;20470;-69
2022/05/10 03:52:17;;;;;;;3.63;1.88;;;19.20;57.30;;;;;;7711074;23;20017;-68
2022/05/10 03:55:24;;;;;;;4.30;2.40;;;19.20;57.30;;;;;;7684846;23;20016;-69
2022/05/10 03:58:28;;;;;;;4.38;2.33;;;19.20;57.30;;;;;;7711360;23;20023;-69
2022/05/10 04:01:29;;;;;;;12.25;2.70;;;19.20;57.40;;;;;;7685934;23;20016;-68
2022/05/10 04:04:30;;;;;;;3.63;2.30;;;19.20;57.50;;;;;;7711661;23;20023;-68
2022/05/10 04:07:30;;;;;;;7.00;2.90;;;19.20;57.50;;;;;;7711877;23;20028;-67
2022/05/10 04:10:31;;;;;;;3.85;2.65;;;19.20;57.50;;;;;;7685624;23;20032;-68
2022/05/10 04:13:32;;;;;;;4.13;2.45;;;19.20;57.70;;;;;;7683647;23;20409;-68
2022/05/10 04:16:33;;;;;;;4.43;2.58;;;19.20;57.80;;;;;;7661073;23;20115;-67
2022/05/10 04:19:34;;;;;;;3.60;2.33;;;19.10;57.90;;;;;;7685498;23;20023;-68
2022/05/10 04:22:35;;;;;;;3.30;2.13;;;19.20;57.90;;;;;;7709832;23;20040;-67
2022/05/10 04:25:36;;;;;;;4.60;2.20;;;19.10;57.60;;;;;;7710723;23;20376;-70
2022/05/10 04:28:38;;;;;;;3.63;2.22;;;19.20;57.40;;;;;;7659197;23;20040;-67
2022/05/10 04:31:39;;;;;;;6.13;2.67;;;19.10;57.10;;;;;;7711421;23;20375;-67
2022/05/10 04:34:40;;;;;;;2.72;1.95;;;19.10;57.00;;;;;;7711393;23;20091;-68
2022/05/10 04:37:41;;;;;;;4.35;2.03;;;19.00;57.00;;;;;;7685001;23;20016;-67
2022/05/10 04:44:06;;;;;;;2.90;2.03;;;19.10;56.90;;;;;;7709977;23;20027;-68
2022/05/10 04:47:07;;;;;;;2.70;2.17;;;19.10;56.80;;;;;;7685043;23;20021;-68
2022/05/10 04:50:09;;;;;;;3.42;1.90;;;19.00;57.30;;;;;;7711564;23;20335;-68
2022/05/10 04:53:10;;;;;;;4.85;2.72;;;19.00;56.60;;;;;;7710626;23;20113;-68
2022/05/10 04:56:11;;;;;;;3.90;2.38;;;19.00;56.50;;;;;;7683352;23;20476;-68
2022/05/10 04:59:12;;;;;;;4.28;2.63;;;19.00;56.60;;;;;;7684419;23;20024;-68
2022/05/10 05:02:13;;;;;;;3.88;2.53;;;19.00;56.70;;;;;;7709584;23;20028;-68
2022/05/10 05:05:14;;;;;;;12.98;2.78;;;18.90;56.80;;;;;;7682294;23;20020;-68
2022/05/10 05:08:15;;;;;;;6.20;2.90;;;18.90;56.80;;;;;;7710249;23;20159;-68
2022/05/10 05:11:16;;;;;;;3.80;2.70;;;18.90;56.80;;;;;;7710072;23;20024;-68
2022/05/10 05:14:17;;;;;;;10.05;2.80;;;19.00;56.90;;;;;;7667774;23;20016;-69
2022/05/10 05:17:18;;;;;;;10.45;2.78;;;19.00;57.00;;;;;;7683389;23;20020;-69
2022/05/10 05:20:19;;;;;;;6.72;2.85;;;19.00;57.00;;;;;;7683339;23;20028;-69
2022/05/10 05:23:22;;;;;;;6.18;2.80;;;19.00;57.00;;;;;;7684079;23;20021;-69
2022/05/10 05:26:24;;;;;;;8.85;3.65;;;19.00;57.00;;;;;;7682787;23;20095;-68
2022/05/10 05:29:25;;;;;;;8.13;2.83;;;19.00;57.00;;;;;;7682847;23;20028;-68
2022/05/10 05:32:29;;;;;;;5.30;3.20;;;19.00;57.10;;;;;;7680482;23;20416;-67
2022/05/10 05:35:33;;;;;;;3.97;2.72;;;18.90;57.40;;;;;;7709796;23;24609;-68
2022/05/10 05:38:33;;;;;;;4.90;3.08;;;18.80;57.70;;;;;;7682048;23;20024;-68
2022/05/10 05:41:34;;;;;;;6.00;3.05;;;18.70;57.90;;;;;;7659395;23;20017;-67
2022/05/10 05:44:35;;;;;;;5.15;2.72;;;18.70;58.10;;;;;;7710334;23;20285;-69
2022/05/10 05:47:37;;;;;;;6.55;2.95;;;18.70;58.30;;;;;;7710556;23;20017;-69
2022/05/10 05:50:38;;;;;;;9.73;3.13;;;18.70;58.40;;;;;;7709932;23;20079;-69
2022/05/10 05:53:40;;;;;;;6.43;3.25;;;18.70;58.60;;;;;;7710328;23;20032;-68
2022/05/10 05:56:41;;;;;;;6.50;3.15;;;18.70;58.60;;;;;;7684222;23;20084;-67
2022/05/10 05:59:42;;;;;;;5.25;3.17;;;18.70;58.60;;;;;;7683828;23;20376;-69
2022/05/10 06:02:42;;;;;;;7.75;3.20;;;18.80;58.70;;;;;;7708334;23;20021;-70
2022/05/10 06:05:43;;;;;;;6.07;2.88;;;18.80;58.70;;;;;;7710061;23;20073;-67
2022/05/10 06:08:44;;;;;;;5.05;2.60;;;18.90;58.80;;;;;;7710233;23;20462;-68
2022/05/10 06:11:46;;;;;;;11.45;3.30;;;19.00;58.80;;;;;;7683517;23;20450;-68
2022/05/10 06:14:47;;;;;;;10.70;3.13;;;19.00;58.70;;;;;;7709557;23;20024;-68
2022/05/10 06:17:48;;;;;;;6.13;3.13;;;19.10;59.30;;;;;;7709752;23;20013;-68
2022/05/10 06:20:49;;;;;;;7.80;3.17;;;19.20;58.60;;;;;;7658812;23;20025;-70
2022/05/10 06:23:50;;;;;;;8.98;3.55;;;19.20;58.50;;;;;;7683878;23;20028;-68
2022/05/10 06:26:51;;;;;;;8.07;2.95;;;19.30;58.50;;;;;;7658693;23;20025;-67
2022/05/10 06:29:53;;;;;;;10.27;3.40;;;19.30;58.40;;;;;;7654760;23;20110;-68
2022/05/10 06:32:59;;;;;;;8.55;3.40;;;19.40;58.30;;;;;;7658196;23;20012;-68
2022/05/10 06:36:00;;;;;;;8.68;3.47;;;19.50;58.20;;;;;;7709500;23;20020;-68
2022/05/10 06:39:02;;;;;;;8.95;3.85;;;19.50;58.00;;;;;;7685239;23;20032;-68
2022/05/10 06:42:04;;;;;;;6.97;4.07;;;19.60;58.00;;;;;;7710187;23;20028;-67
2022/05/10 06:45:10;;;;;;;7.07;3.58;;;19.80;57.90;;;;;;7709440;23;20021;-68
2022/05/10 06:48:12;;;;;;;6.00;3.78;;;19.90;57.50;;;;;;7709601;23;20426;-68
2022/05/10 06:51:14;;;;;;;9.13;3.55;;;19.80;57.10;;;;;;7683324;23;20682;-68
2022/05/10 06:54:15;;;;;;;7.40;3.42;;;20.10;56.90;;;;;;7708869;23;20490;-68
2022/05/10 06:57:16;;;;;;;8.93;3.42;;;20.20;56.80;;;;;;7684255;23;20024;-68
2022/05/10 07:00:17;;;;;;;5.05;3.20;;;20.40;56.60;;;;;;7710605;23;20364;-69
2022/05/10 07:03:28;;;;;;;13.15;4.53;;;20.60;56.20;;;;;;7682772;23;20032;-68
2022/05/10 07:06:29;;;;;;;4.93;3.22;;;20.70;55.90;;;;;;7710772;23;20088;-68
2022/05/10 07:09:30;;;;;;;11.25;4.10;;;20.90;55.50;;;;;;7710988;23;20096;-67
2022/05/10 07:12:30;;;;;;;5.55;3.40;;;21.10;55.00;;;;;;7710892;23;20166;-68
2022/05/10 07:15:31;;;;;;;4.57;3.25;;;21.20;55.40;;;;;;7683922;23;20439;-69
2022/05/10 07:18:32;;;;;;;7.82;3.38;;;21.30;54.50;;;;;;7684807;23;20104;-69
2022/05/10 07:21:33;;;;;;;9.25;3.30;;;21.40;54.20;;;;;;7657909;23;20017;-69
2022/05/10 07:24:34;;;;;;;7.15;3.10;;;21.60;53.90;;;;;;7684131;23;20012;-69
2022/05/10 07:27:35;;;;;;;6.82;3.53;;;21.70;53.50;;;;;;7710838;23;20383;-68
2022/05/10 07:30:36;;;;;;;4.13;3.05;;;21.80;52.90;;;;;;7659546;23;20092;-69
2022/05/10 07:33:37;;;;;;;10.60;3.95;;;21.90;52.40;;;;;;7684135;23;20027;-68
2022/05/10 07:36:40;;;;;;;4.47;3.33;;;21.90;52.40;;;;;;7710725;23;20029;-69
2022/05/10 07:39:42;;;;;;;10.07;3.17;;;22.00;52.20;;;;;;7670699;23;20027;-69
2022/05/10 07:42:42;;;;;;;10.43;3.40;;;22.10;51.80;;;;;;7683467;23;20020;-68
2022/05/10 07:45:48;;;;;;;5.75;3.25;;;22.10;51.50;;;;;;7683831;23;20024;-69
2022/05/10 07:48:49;;;;;;;4.70;3.13;;;22.20;51.50;;;;;;7658711;23;20023;-68
2022/05/10 07:51:51;;;;;;;8.60;3.33;;;22.40;51.20;;;;;;7684355;23;20100;-68
2022/05/10 07:54:52;;;;;;;6.53;2.83;;;22.50;50.80;;;;;;7659037;23;20020;-69
2022/05/10 07:57:53;;;;;;;9.95;3.42;;;22.60;50.60;;;;;;7710341;23;20012;-68
2022/05/10 08:00:54;;;;;;;3.90;2.90;;;22.70;50.50;;;;;;7712387;23;20012;-69
2022/05/10 08:03:55;;;;;;;14.15;2.72;;;22.80;50.30;;;;;;7686304;23;20325;-68
2022/05/10 08:06:55;;;;;;;5.53;3.75;;;23.00;49.70;;;;;;7686011;23;20020;-69
2022/05/10 08:09:59;;;;;;;6.45;2.38;;;23.10;49.70;;;;;;7712751;23;20016;-69
2022/05/10 08:13:01;;;;;;;7.03;2.45;;;23.20;49.00;;;;;;7685149;23;20027;-69
2022/05/10 08:16:02;;;;;;;7.35;2.42;;;23.30;48.70;;;;;;7661935;23;20100;-68
2022/05/10 08:19:03;;;;;;;5.90;2.65;;;23.40;48.30;;;;;;7711322;23;20640;-70
2022/05/10 08:22:04;;;;;;;3.47;2.33;;;23.50;47.90;;;;;;7660588;23;20017;-69
2022/05/10 08:25:06;;;;;;;2.97;2.40;;;23.60;47.90;;;;;;7686313;23;20534;-69
2022/05/10 08:28:13;;;;;;;4.40;2.20;;;23.80;47.50;;;;;;7685928;23;20013;-69
2022/05/10 08:31:15;;;;;;;6.22;2.90;;;24.00;47.00;;;;;;7685510;23;20027;-69
2022/05/10 08:34:16;;;;;;;7.05;2.65;;;24.00;46.40;;;;;;7685683;23;20089;-69
2022/05/10 08:37:16;;;;;;;5.05;2.55;;;24.10;46.20;;;;;;7686010;23;20335;-69
2022/05/10 08:40:30;;;;;;;6.93;2.22;;;24.10;46.00;;;;;;7712071;23;20320;-68
2022/05/10 08:43:39;;;;;;;3.72;2.42;;;24.10;45.80;;;;;;7685153;23;20016;-68
2022/05/10 08:46:44;;;;;;;5.07;1.98;;;24.20;45.80;;;;;;7686403;23;20027;-69
2022/05/10 08:49:51;;;;;;;6.18;2.38;;;24.30;45.40;;;;;;7712108;23;20083;-69
2022/05/10 08:52:52;;;;;;;8.48;2.80;;;24.30;45.10;;;;;;7684486;23;20035;-69
2022/05/10 08:56:17;;;;;;;3.22;2.40;;;24.40;45.00;;;;;;7683203;23;20013;-69
2022/05/10 08:59:47;;;;;;;7.55;2.40;;;24.50;44.90;;;;;;7708908;23;20043;-69
2022/05/10 09:02:54;;;;;;;6.30;2.25;;;24.70;44.70;;;;;;7706392;23;20391;-69
2022/05/10 09:06:03;;;;;;;3.83;2.30;;;24.80;44.40;;;;;;7681606;23;20027;-69
2022/05/10 09:09:35;;;;;;;9.20;2.05;;;24.90;44.30;;;;;;7681927;23;20016;-68
2022/05/10 09:12:44;;;;;;;3.28;2.33;;;25.00;44.10;;;;;;7494233;23;20057;-68
2022/05/10 09:15:57;;;;;;;3.42;2.38;;;25.10;43.70;;;;;;7522348;23;20026;-69
2022/05/10 09:18:59;;;;;;;9.75;2.50;;;25.20;43.30;;;;;;7520699;23;20027;-71
2022/05/10 09:22:07;;;;;;;3.55;2.50;;;25.30;43.20;;;;;;7519626;23;20023;-68
2022/05/10 09:25:35;;;;;;;2.65;2.08;;;25.30;43.10;;;;;;7496967;23;20359;-69
2022/05/10 09:28:44;;;;;;;3.20;2.00;;;25.40;43.50;;;;;;7518957;23;20018;-69
2022/05/10 09:35:14;;;;;;;8.25;2.85;;;25.60;42.30;;;;;;7505851;23;20039;-69
2022/05/10 09:38:17;;;;;;;6.63;2.88;;;25.60;42.10;;;;;;7518958;23;20110;-68
2022/05/10 09:41:37;;;;;;;3.65;2.67;;;25.70;41.70;;;;;;7521114;23;20082;-68
2022/05/10 09:44:37;;;;;;;4.93;2.22;;;25.80;41.70;;;;;;7496259;23;20019;-68
2022/05/10 09:47:39;;;;;;;3.30;1.90;;;25.90;41.70;;;;;;7523244;23;20022;-69
2022/05/10 09:50:47;;;;;;;3.85;2.15;;;25.90;41.60;;;;;;7706483;23;20024;-68
2022/05/10 09:53:48;;;;;;;4.80;2.35;;;26.00;41.30;;;;;;7679980;23;20020;-68
2022/05/10 09:56:56;;;;;;;11.10;1.85;;;26.10;41.10;;;;;;7706566;23;20092;-69
2022/05/10 09:59:57;;;;;;;4.43;2.33;;;26.30;41.00;;;;;;7680215;23;20092;-68
2022/05/10 10:02:59;;;;;;;2.47;1.67;;;26.30;40.70;;;;;;7680160;23;20021;-68
2022/05/10 10:06:29;;;;;;;3.53;2.03;;;26.40;40.30;;;;;;7678792;23;20041;-68
2022/05/10 10:09:33;;;;;;;7.97;1.95;;;26.50;40.10;;;;;;7567356;23;20018;-70
2022/05/10 10:12:42;;;;;;;4.50;1.63;;;26.60;39.80;;;;;;7591463;23;20388;-69
2022/05/10 10:15:43;;;;;;;2.72;1.75;;;26.60;38.80;;;;;;7590980;23;20315;-69
2022/05/10 10:18:48;;;;;;;2.90;2.05;;;26.70;38.20;;;;;;7591792;23;20048;-69
2022/05/10 10:21:54;;;;;;;2.53;1.75;;;26.70;38.10;;;;;;7567019;23;20303;-71
2022/05/10 10:25:10;;;;;;;4.45;3.17;;;26.70;38.50;;;;;;7566966;23;20413;-71
2022/05/10 10:28:40;;;;;;;4.50;1.95;;;26.70;38.40;;;;;;7591462;23;20018;-68
2022/05/10 10:32:24;;;;;;;5.35;1.85;;;26.80;38.50;;;;;;7483249;23;20015;-69
2022/05/10 10:35:46;;;;;;;5.00;1.85;;;26.90;38.40;;;;;;7479846;23;20023;-69
2022/05/10 10:39:11;;;;;;;5.70;3.67;;;27.00;38.40;;;;;;7482810;23;20019;-71
2022/05/10 10:42:28;;;;;;;4.65;2.20;;;27.00;38.20;;;;;;7483350;23;20029;-71
2022/05/10 10:45:50;;;;;;;3.88;1.90;;;27.20;38.00;;;;;;7533107;23;20043;-69
2022/05/10 10:49:12;;;;;;;4.50;2.05;;;27.30;37.70;;;;;;7566019;23;20014;-69
2022/05/10 10:52:14;;;;;;;7.32;2.38;;;27.40;37.40;;;;;;7565154;23;20173;-70
2022/05/10 10:55:18;;;;;;;8.70;2.38;;;28.10;36.60;;;;;;7567118;23;20025;-70
2022/05/10 10:58:47;;;;;;;4.47;1.92;;;29.10;35.30;;;;;;7591473;23;20018;-70
2022/05/10 11:01:53;;;;;;;;;;;30.10;33.60;;;;;;7591595;23;20041;-70
2022/05/10 11:05:00;;;;;;;3.30;2.30;;;31.10;32.50;;;;;;7592223;23;20155;-70
2022/05/10 11:08:11;;;;;;;7.63;2.10;;;31.70;31.20;;;;;;7604270;23;20087;-71
2022/05/10 11:11:25;;;;;;;3.00;2.15;;;32.20;30.50;;;;;;7678525;23;20335;-69
2022/05/10 11:14:38;;;;;;;6.45;2.00;;;32.60;30.00;;;;;;7678243;23;20032;-68
2022/05/10 11:17:53;;;;;;;5.07;2.00;;;32.80;29.70;;;;;;7702730;23;20387;-71
2022/05/10 11:21:09;;;;;;;4.15;2.20;;;32.90;29.20;;;;;;7676867;23;20078;-69
2022/05/10 11:24:55;;;;;;;5.63;2.30;;;32.90;28.80;;;;;;7677772;23;20439;-69
2022/05/10 11:28:16;;;;;;;6.82;2.40;;;33.20;28.70;;;;;;7460437;23;20080;-69
2022/05/10 11:31:26;;;;;;;2.28;1.88;;;33.40;28.30;;;;;;7484987;23;20414;-71
2022/05/10 11:35:02;;;;;;;2.42;1.65;;;33.60;28.10;;;;;;7488031;23;20083;-72
2022/05/10 11:38:31;;;;;;;2.83;2.13;;;33.60;27.60;;;;;;7391618;24;20028;-71
2022/05/10 11:41:42;;;;;;;2.90;2.00;;;33.50;27.30;;;;;;7414628;23;20106;-70
2022/05/10 11:45:22;;;;;;;3.47;2.22;;;33.60;27.10;;;;;;7416179;24;20020;-70
2022/05/10 11:49:00;;;;;;;1.73;1.40;;;33.70;26.60;;;;;;7415871;24;20096;-70
2022/05/10 11:52:13;;;;;;;1.80;1.70;;;33.80;26.20;;;;;;7416344;24;20024;-70
2022/05/10 11:55:23;;;;;;;5.13;1.70;;;34.10;25.60;;;;;;7417534;24;20084;-69
2022/05/10 11:58:26;;;;;;;3.80;2.38;;;34.30;24.80;;;;;;7504824;23;20022;-70
2022/05/10 12:01:50;;;;;;;4.97;1.17;;;34.50;24.40;;;;;;7557509;23;20017;-70
2022/05/10 12:05:14;;;;;;;2.22;1.30;;;34.80;23.80;;;;;;7570085;23;20022;-70
2022/05/10 12:08:15;;;;;;;3.00;1.40;;;35.00;23.30;;;;;;7579080;23;20013;-72
2022/05/10 12:11:28;;;;;;;2.30;1.48;;;35.20;22.80;;;;;;7631639;23;20043;-69
2022/05/10 12:21:37;;;;;;;2.30;1.40;;;36.00;21.50;;;;;;7708727;23;20388;-70
2022/05/10 12:24:45;;;;;;;1.67;1.00;;;36.00;20.90;;;;;;7708120;23;20062;-70
2022/05/10 12:28:00;;;;;;;2.78;1.10;;;35.90;20.90;;;;;;7681065;23;20032;-70
2022/05/10 12:31:01;;;;;;;4.57;1.20;;;36.00;20.70;;;;;;7681239;23;20051;-72
2022/05/10 12:34:08;;;;;;;1.75;1.13;;;36.10;20.90;;;;;;7683010;23;20027;-71
2022/05/10 12:37:26;;;;;;;2.08;1.20;;;36.00;20.40;;;;;;7658544;23;20023;-70
2022/05/10 12:40:51;;;;;;;1.58;1.30;;;36.00;20.40;;;;;;7679602;23;20017;-70
2022/05/10 12:44:00;;;;;;;1.52;1.23;;;36.00;20.40;;;;;;7691101;23;20020;-70
2022/05/10 12:47:10;;;;;;;2.50;1.60;;;36.20;20.50;;;;;;7708716;23;20497;-70
2022/05/10 12:50:35;;;;;;;4.28;2.05;;;36.60;20.60;;;;;;7707183;23;20077;-70
2022/05/10 12:53:42;;;;;;;1.65;1.55;;;36.90;20.60;;;;;;7707375;23;20047;-69
2022/05/10 12:57:02;;;;;;;2.00;1.73;;;37.20;20.60;;;;;;7681055;23;20028;-69
2022/05/10 13:00:14;;;;;;;2.05;1.60;;;37.50;20.50;;;;;;7680544;23;20088;-69
2022/05/10 13:03:23;;;;;;;2.75;1.77;;;37.80;20.10;;;;;;7681558;23;20079;-69
2022/05/10 13:06:30;;;;;;;2.97;1.52;;;38.10;19.90;;;;;;7680864;23;20016;-69
2022/05/10 13:09:40;;;;;;;2.85;1.48;;;38.60;19.60;;;;;;7681025;23;20423;-69
2022/05/10 13:12:46;;;;;;;3.47;1.45;;;38.80;19.40;;;;;;7658214;23;20040;-69
2022/05/10 13:15:48;;;;;;;2.80;1.65;;;39.20;19.40;;;;;;7669740;23;20017;-70
2022/05/10 13:18:53;;;;;;;12.90;1.85;;;39.70;19.10;;;;;;7670062;23;20387;-70
2022/05/10 13:21:55;;;;;;;2.50;1.75;;;40.10;18.70;;;;;;7669656;23;20302;-70
2022/05/10 13:24:58;;;;;;;1.67;1.58;;;40.60;18.90;;;;;;7670167;23;20093;-69
2022/05/10 13:28:19;;;;;;;1.90;1.55;;;41.20;18.10;;;;;;7667941;23;20036;-70
2022/05/10 13:31:23;;;;;;;2.00;1.45;;;41.80;17.70;;;;;;7668316;23;20013;-69
2022/05/10 13:34:23;;;;;;;2.08;1.70;;;42.30;17.40;;;;;;7644809;23;20025;-69
2022/05/10 13:37:34;;;;;;;1.83;1.50;;;42.50;17.20;;;;;;7671718;23;20021;-70
2022/05/10 13:40:38;;;;;;;5.05;1.70;;;42.50;17.10;;;;;;7668101;23;20049;-70
2022/05/10 13:43:46;;;;;;;1.83;1.73;;;42.40;17.30;;;;;;7669388;23;20064;-71
2022/05/10 13:46:57;;;;;;;2.13;1.50;;;42.60;17.20;;;;;;7669313;23;20083;-69
2022/05/10 13:49:59;;;;;;;1.95;1.55;;;42.80;17.00;;;;;;7669499;23;20016;-71
2022/05/10 13:53:07;;;;;;;1.73;1.63;;;42.80;16.90;;;;;;7670085;23;20020;-69
2022/05/10 13:56:11;;;;;;;1.98;1.70;;;42.60;16.90;;;;;;7669506;23;20088;-69
2022/05/10 13:59:12;;;;;;;2.33;2.00;;;42.60;17.00;;;;;;7670995;23;20017;-69
2022/05/10 14:02:14;;;;;;;1.77;1.60;;;42.80;16.90;;;;;;7668435;23;20051;-69
2022/05/10 14:05:17;;;;;;;1.70;1.50;;;43.10;16.60;;;;;;7670898;23;20024;-69
2022/05/10 14:08:24;;;;;;;4.32;1.45;;;43.30;16.60;;;;;;7668182;23;20013;-70
2022/05/10 14:11:25;;;;;;;5.55;1.65;;;43.30;16.50;;;;;;7667896;23;20025;-70
2022/05/10 14:14:29;;;;;;;1.85;1.67;;;43.10;16.60;;;;;;7670896;23;20269;-68
2022/05/10 14:17:30;;;;;;;1.77;1.65;;;43.00;16.60;;;;;;7645845;23;20020;-71
2022/05/10 14:20:35;;;;;;;2.33;1.40;;;42.90;16.60;;;;;;7646309;23;20017;-70
2022/05/10 14:23:36;;;;;;;3.95;1.63;;;42.90;16.40;;;;;;7671829;23;20025;-70
2022/05/10 14:26:42;;;;;;;2.88;1.88;;;42.90;16.40;;;;;;7671134;23;20480;-70
2022/05/10 14:29:45;;;;;;;1.60;1.50;;;42.70;16.50;;;;;;7643648;23;20040;-70
2022/05/10 14:32:46;;;;;;;5.35;1.67;;;42.70;16.60;;;;;;7670538;23;20017;-72
2022/05/10 14:35:55;;;;;;;2.03;1.67;;;42.50;16.60;;;;;;7671526;23;20086;-69
2022/05/10 14:38:57;;;;;;;3.67;2.00;;;42.00;16.80;;;;;;7669281;23;20383;-70
2022/05/10 14:41:58;;;;;;;6.00;2.08;;;41.50;17.20;;;;;;7670869;23;20076;-69
2022/05/10 14:45:32;;;;;;;2.92;1.60;;;41.00;17.50;;;;;;7669735;23;20475;-69
2022/05/10 14:48:38;;;;;;;5.68;1.90;;;39.90;18.30;;;;;;7669141;23;20001;-70
2022/05/10 14:51:46;;;;;;;1.92;1.70;;;38.80;19.00;;;;;;7671198;23;20024;-70
2022/05/10 14:54:47;;;;;;;3.80;2.22;;;37.70;19.70;;;;;;7671343;23;20375;-70
2022/05/10 14:57:52;;;;;;;3.95;2.20;;;36.80;20.40;;;;;;7671230;23;20021;-69
2022/05/10 15:01:04;;;;;;;4.00;1.95;;;36.10;21.00;;;;;;7671036;23;20014;-68
2022/05/10 15:04:13;;;;;;;3.55;2.20;;;35.40;21.50;;;;;;7671838;23;20328;-69
2022/05/10 15:07:15;;;;;;;2.78;1.80;;;34.80;21.90;;;;;;7670436;23;20021;-69
2022/05/10 15:10:15;;;;;;;2.60;2.00;;;34.30;22.40;;;;;;7674898;23;20304;-69
2022/05/10 15:13:17;;;;;;;5.05;2.08;;;33.80;22.80;;;;;;7711385;23;20128;-69
2022/05/10 15:16:18;;;;;;;3.05;2.25;;;33.50;23.30;;;;;;7711998;23;20032;-69
2022/05/10 15:19:19;;;;;;;2.88;1.88;;;33.20;23.50;;;;;;7661050;23;20072;-69
2022/05/10 15:22:20;;;;;;;2.95;1.73;;;33.70;23.50;;;;;;7714308;23;20025;-69
2022/05/10 15:25:21;;;;;;;3.53;1.63;;;34.80;22.70;;;;;;7661904;23;20020;-70
2022/05/10 15:28:22;;;;;;;8.68;2.17;;;35.90;21.90;;;;;;7662273;23;20035;-70
2022/05/10 15:31:25;;;;;;;4.65;2.25;;;36.90;21.30;;;;;;7662247;23;20048;-70
2022/05/10 15:34:44;;;;;;;2.75;2.00;;;37.30;20.80;;;;;;7712999;23;20461;-69
2022/05/10 15:37:46;;;;;;;2.80;1.58;;;37.60;20.50;;;;;;7711441;23;20028;-69
2022/05/10 15:40:47;;;;;;;3.30;2.15;;;37.90;20.40;;;;;;7683949;23;20116;-70
2022/05/10 15:43:48;;;;;;;4.43;2.03;;;38.30;20.10;;;;;;7659334;23;20020;-70
2022/05/10 15:46:51;;;;;;;2.75;1.75;;;38.90;19.60;;;;;;7709355;23;20415;-69
2022/05/10 15:49:52;;;;;;;2.53;1.77;;;39.40;19.10;;;;;;7685034;23;20028;-69
2022/05/10 15:52:53;;;;;;;1.80;1.70;;;39.70;18.90;;;;;;7708979;23;20023;-69
2022/05/10 15:55:56;;;;;;;2.72;2.00;;;39.20;19.00;;;;;;7708557;23;20016;-70
2022/05/10 15:58:57;;;;;;;5.88;2.13;;;38.40;19.60;;;;;;7710453;23;20008;-70
2022/05/10 16:01:59;;;;;;;5.32;1.92;;;38.30;19.80;;;;;;7710469;23;20047;-70
2022/05/10 16:05:01;;;;;;;4.60;2.10;;;38.50;19.60;;;;;;7707532;23;20013;-70
2022/05/10 16:08:02;;;;;;;2.88;2.00;;;38.50;19.50;;;;;;7657058;23;20095;-70
2022/05/10 16:11:06;;;;;;;3.58;2.13;;;38.80;19.30;;;;;;7666000;23;20017;-71
2022/05/10 16:14:08;;;;;;;3.40;1.90;;;39.10;19.20;;;;;;7683123;23;20013;-70
2022/05/10 16:17:09;;;;;;;2.67;1.80;;;39.00;18.90;;;;;;7684712;23;20045;-70
2022/05/10 16:20:11;;;;;;;4.60;1.83;;;38.80;19.10;;;;;;7682983;23;20286;-69
2022/05/10 16:23:12;;;;;;;2.78;1.90;;;38.50;19.20;;;;;;7711060;23;20320;-69
2022/05/10 16:29:44;;;;;;;4.60;1.90;;;38.30;19.30;;;;;;7683627;23;20024;-71
2022/05/10 16:32:45;;;;;;;1.75;1.60;;;38.30;19.30;;;;;;7712567;23;20026;-70
2022/05/10 16:35:46;;;;;;;5.60;1.90;;;38.40;19.10;;;;;;7684231;23;20016;-70